Time;durP1;ratioP1;P1;durP2;ratioP2;P2;SDS_P1;SDS_P2;PMS_P1;PMS_P2;Temp;Humidity;BMP_temperature;BMP_pressure;BME280_temperature;BME280_humidity;BME280_pressure;Samples;Min_cycle;Max_cycle;Signal;HPM_P1;HPM_P2
2022/06/26 00:01:49;;;;;;;1.73;1.63;;;;;;;19.38;71.66;97848.44;4989408;28;20054;-88
2022/06/26 00:04:15;;;;;;;2.03;1.83;;;;;;;19.33;72.22;97856.41;4993790;28;20375;-87
2022/06/26 00:06:41;;;;;;;1.65;1.52;;;;;;;19.26;71.82;97839.91;4993329;28;20062;-87
2022/06/26 00:09:09;;;;;;;1.30;1.20;;;;;;;19.40;72.13;97861.47;4989550;28;20034;-90
2022/06/26 00:11:50;;;;;;;1.42;1.33;;;;;;;19.37;71.74;97857.50;4980667;28;20479;-90
2022/06/26 00:14:16;;;;;;;1.00;1.00;;;;;;;19.30;70.95;97861.44;4988093;28;20085;-91
2022/06/26 00:16:42;;;;;;;1.60;1.50;;;;;;;19.28;70.08;97864.34;4992505;28;20035;-89
2022/06/26 00:19:07;;;;;;;1.50;1.40;;;;;;;19.33;69.91;97867.03;4992812;28;20031;-91
2022/06/26 00:21:35;;;;;;;1.33;1.23;;;;;;;19.24;70.81;97879.22;4993651;28;20482;-88
2022/06/26 00:24:01;;;;;;;2.05;1.40;;;;;;;19.13;70.50;97854.47;4993280;28;20084;-90
2022/06/26 00:26:26;;;;;;;1.52;1.42;;;;;;;19.11;70.84;97859.25;5008902;28;20041;-90
2022/06/26 00:28:53;;;;;;;1.65;1.55;;;;;;;19.18;71.18;97866.97;5029202;28;20117;-89
2022/06/26 00:31:18;;;;;;;1.70;1.60;;;;;;;19.02;70.23;97860.03;5014052;28;20494;-90
2022/06/26 00:33:44;;;;;;;1.42;1.33;;;;;;;18.98;71.44;97863.19;4993469;28;20034;-91
2022/06/26 00:36:10;;;;;;;1.83;1.40;;;;;;;18.98;71.85;97867.69;4992824;28;20165;-91
2022/06/26 00:38:36;;;;;;;1.45;1.35;;;;;;;18.91;72.02;97865.28;4977856;28;20433;-88
2022/06/26 00:41:01;;;;;;;2.15;1.55;;;;;;;19.06;71.85;97885.00;4981925;28;20066;-87
2022/06/26 00:43:28;;;;;;;1.48;1.38;;;;;;;18.93;72.66;97876.44;4988713;28;20037;-91
2022/06/26 00:45:57;;;;;;;1.45;1.35;;;;;;;18.93;72.30;97884.41;4973347;28;20086;-91
2022/06/26 00:48:23;;;;;;;1.50;1.40;;;;;;;18.91;72.61;97883.88;5005957;28;20502;-90
2022/06/26 00:50:51;;;;;;;1.58;1.48;;;;;;;18.82;72.38;97880.09;5007935;28;20059;-91
2022/06/26 00:53:18;;;;;;;1.30;1.20;;;;;;;18.94;72.43;97895.84;5008062;28;20442;-90
2022/06/26 00:55:44;;;;;;;2.30;1.70;;;;;;;18.90;71.90;97900.09;4993550;28;20041;-91
2022/06/26 00:58:12;;;;;;;1.70;1.60;;;;;;;18.78;72.36;97884.34;4985433;28;20030;-88
2022/06/26 01:00:41;;;;;;;3.03;2.25;;;;;;;18.75;72.92;97890.16;4988561;28;20057;-89
2022/06/26 01:03:08;;;;;;;4.07;2.75;;;;;;;18.67;72.36;97880.03;4978229;28;20081;-90
2022/06/26 01:05:34;;;;;;;3.75;2.40;;;;;;;18.68;73.42;97884.28;4998626;28;20035;-92
2022/06/26 01:08:02;;;;;;;3.35;2.03;;;;;;;18.66;72.92;97881.06;4989035;28;20122;-92
2022/06/26 01:10:28;;;;;;;2.17;1.98;;;;;;;18.59;73.40;97883.94;4970185;28;20030;-88
2022/06/26 01:12:54;;;;;;;1.70;1.60;;;;;;;18.68;73.84;97895.69;5003460;28;20065;-90
2022/06/26 01:15:21;;;;;;;1.70;1.60;;;;;;;18.62;73.61;97893.25;5004511;28;20038;-90
2022/06/26 01:17:47;;;;;;;2.20;2.00;;;;;;;18.45;72.33;97862.31;5008302;28;20034;-93
2022/06/26 01:20:13;;;;;;;2.17;1.67;;;;;;;18.60;72.42;97898.03;5021229;28;20035;-90
2022/06/26 01:22:39;;;;;;;3.60;1.70;;;;;;;18.58;73.28;97897.47;5008099;28;20045;-90
2022/06/26 01:25:07;;;;;;;1.85;1.75;;;;;;;18.51;73.54;97883.59;4995440;28;20077;-88
2022/06/26 01:27:42;;;;;;;1.63;1.52;;;;;;;18.51;73.38;97891.56;4989712;28;20042;-85
2022/06/26 01:30:11;;;;;;;1.85;1.75;;;;;;;18.41;73.54;97893.13;5003406;28;20040;-92
2022/06/26 01:32:37;;;;;;;1.20;1.20;;;;;;;18.44;74.11;97887.28;4991062;28;20030;-89
2022/06/26 01:35:03;;;;;;;1.65;1.55;;;;;;;18.39;74.23;97894.41;4974510;28;20070;-89
2022/06/26 01:37:29;;;;;;;2.00;1.90;;;;;;;18.50;74.13;97916.53;4992336;28;20105;-91
2022/06/26 01:39:57;;;;;;;2.03;1.90;;;;;;;18.29;72.75;97876.56;4991643;28;20034;-90
2022/06/26 01:42:23;;;;;;;2.03;1.80;;;;;;;18.38;72.63;97887.50;5024497;28;20030;-88
2022/06/26 01:44:48;;;;;;;2.10;2.00;;;;;;;18.48;72.87;97902.72;4992125;28;20038;-85
2022/06/26 01:47:14;;;;;;;2.95;2.03;;;;;;;18.41;72.39;97914.38;4992170;28;20109;-87
2022/06/26 01:49:42;;;;;;;2.42;2.22;;;;;;;18.30;73.71;97888.78;4990404;28;20022;-90
2022/06/26 01:52:08;;;;;;;2.40;2.20;;;;;;;18.29;72.19;97895.16;5024177;28;20045;-87
2022/06/26 01:54:33;;;;;;;2.72;2.53;;;;;;;18.33;71.37;97904.19;4991854;28;20034;-90
2022/06/26 01:56:59;;;;;;;2.42;2.17;;;;;;;18.29;72.92;97895.16;4991797;28;20185;-89
2022/06/26 01:59:24;;;;;;;3.13;2.25;;;;;;;18.30;73.62;97903.91;4990726;28;20030;-90
2022/06/26 02:01:50;;;;;;;1.90;1.80;;;;;;;18.27;73.79;97899.91;4991151;28;20118;-87
2022/06/26 02:04:16;;;;;;;1.88;1.77;;;;;;;18.19;73.86;97873.81;4990699;28;20030;-89
2022/06/26 02:06:43;;;;;;;2.50;2.30;;;;;;;18.16;73.83;97895.56;4992195;28;20497;-89
2022/06/26 02:13:35;;;;;;;2.70;2.50;;;;;;;18.07;74.61;97892.56;4987063;28;20201;-89
2022/06/26 02:14:41;;;;;;;2.10;2.00;;;;;;;18.06;74.58;97884.88;4973735;28;20035;-87
2022/06/26 02:17:06;;;;;;;1.60;1.50;;;;;;;18.24;75.24;97919.00;4973469;28;20089;-91
2022/06/26 02:19:32;;;;;;;1.55;1.45;;;;;;;18.13;75.24;97904.84;4988549;28;20107;-89
2022/06/26 02:21:57;;;;;;;1.50;1.40;;;;;;;18.10;75.23;97901.88;5000662;28;20042;-87
2022/06/26 02:24:23;;;;;;;2.20;1.98;;;;;;;18.18;74.72;97922.66;4991396;28;20045;-92
2022/06/26 02:26:48;;;;;;;1.70;1.60;;;;;;;18.02;75.52;97905.00;4993015;28;20034;-87
2022/06/26 02:29:14;;;;;;;2.00;1.75;;;;;;;18.11;74.94;97916.75;4962427;28;20386;-91
2022/06/26 02:31:42;;;;;;;1.63;1.52;;;;;;;18.00;75.36;97907.91;4987417;28;20037;-88
2022/06/26 02:34:07;;;;;;;1.60;1.35;;;;;;;18.11;75.28;97919.41;4971557;28;20389;-87
2022/06/26 02:36:33;;;;;;;1.60;1.50;;;;;;;17.94;75.43;97892.19;4984869;28;20109;-88
2022/06/26 02:38:59;;;;;;;1.30;1.25;;;;;;;18.01;75.23;97914.00;4992328;28;20073;-88
2022/06/26 02:41:24;;;;;;;1.70;1.60;;;;;;;17.99;74.92;97921.41;4992711;28;20041;-88
2022/06/26 02:43:50;;;;;;;1.60;1.50;;;;;;;17.94;75.82;97913.44;4991450;28;20125;-90
2022/06/26 02:46:18;;;;;;;1.50;1.40;;;;;;;17.96;75.31;97921.94;4994506;28;20034;-90
2022/06/26 02:48:44;;;;;;;1.38;1.27;;;;;;;17.82;75.34;97905.63;5012895;28;20490;-89
2022/06/26 02:51:10;;;;;;;1.50;1.40;;;;;;;17.88;75.67;97925.84;5009354;28;20034;-89
2022/06/26 02:53:35;;;;;;;2.00;1.90;;;;;;;17.72;74.62;97900.19;4978396;28;20366;-92
2022/06/26 02:56:01;;;;;;;1.55;1.42;;;;;;;17.79;75.12;97911.41;4997478;28;20089;-91
2022/06/26 02:58:26;;;;;;;2.28;1.92;;;;;;;17.75;74.54;97903.16;5009643;28;20094;-87
2022/06/26 03:00:52;;;;;;;1.90;1.80;;;;;;;17.87;74.38;97933.00;4991595;28;20089;-89
2022/06/26 03:03:18;;;;;;;1.90;1.80;;;;;;;17.79;75.18;97927.31;4978038;28;20371;-89
2022/06/26 03:05:44;;;;;;;1.90;1.80;;;;;;;17.78;75.18;97931.03;4995694;28;20042;-91
2022/06/26 03:08:11;;;;;;;2.28;2.08;;;;;;;17.80;76.53;97934.22;4992447;28;20026;-88
2022/06/26 03:10:39;;;;;;;2.15;1.98;;;;;;;17.78;76.30;97936.34;4990013;28;20030;-88
2022/06/26 03:13:04;;;;;;;2.03;1.92;;;;;;;17.70;75.84;97926.16;5009883;28;20407;-89
2022/06/26 03:15:35;;;;;;;1.63;1.52;;;;;;;17.83;76.30;97941.69;4985073;28;20027;-87
2022/06/26 03:18:03;;;;;;;1.98;1.88;;;;;;;17.77;76.12;97943.50;5009185;28;20034;-87
2022/06/26 03:20:29;;;;;;;2.08;1.98;;;;;;;17.76;75.88;97947.22;4995640;28;20030;-91
2022/06/26 03:22:55;;;;;;;1.40;1.30;;;;;;;17.78;75.70;97941.66;5012407;28;20382;-92
2022/06/26 03:25:21;;;;;;;1.60;1.50;;;;;;;17.69;75.43;97933.28;5011255;28;20037;-89
2022/06/26 03:27:46;;;;;;;2.35;1.80;;;;;;;17.71;75.12;97936.50;4993869;28;20033;-89
2022/06/26 03:30:13;;;;;;;1.50;1.40;;;;;;;17.81;75.02;97957.88;5013971;28;20042;-89
2022/06/26 03:32:39;;;;;;;1.77;1.67;;;;;;;17.64;74.65;97946.50;4996264;28;20022;-91
2022/06/26 03:35:06;;;;;;;1.75;1.65;;;;;;;17.67;75.39;97946.81;4993402;28;20042;-89
2022/06/26 03:37:32;;;;;;;1.58;1.48;;;;;;;17.66;75.74;97939.91;4994122;28;20045;-89
2022/06/26 03:39:58;;;;;;;1.45;1.35;;;;;;;17.67;75.73;97932.75;4993217;28;20516;-87
2022/06/26 03:42:26;;;;;;;1.80;1.70;;;;;;;17.63;75.11;97926.31;4973303;28;20030;-88
2022/06/26 03:44:52;;;;;;;1.55;1.42;;;;;;;17.67;75.69;97943.34;5021285;28;20052;-86
2022/06/26 03:47:18;;;;;;;1.98;1.83;;;;;;;17.64;75.97;97952.63;5025101;28;20094;-86
2022/06/26 03:49:44;;;;;;;2.30;2.10;;;;;;;17.50;77.41;97946.06;4993336;28;20073;-86
2022/06/26 03:52:09;;;;;;;1.58;1.48;;;;;;;17.60;77.65;97956.00;5008350;28;20088;-86
2022/06/26 03:54:35;;;;;;;1.90;1.60;;;;;;;17.63;78.07;97960.81;4992449;28;20037;-87
2022/06/26 03:57:04;;;;;;;1.73;1.63;;;;;;;17.54;77.25;97952.50;5008321;28;20034;-87
2022/06/26 03:59:30;;;;;;;1.60;1.50;;;;;;;17.63;76.89;97966.94;4989760;28;20042;-87
2022/06/26 04:01:56;;;;;;;1.50;1.40;;;;;;;17.46;76.71;97950.28;5019445;28;20121;-87
2022/06/26 04:04:21;;;;;;;1.77;1.67;;;;;;;17.49;76.98;97959.59;4992195;28;20034;-87
2022/06/26 04:06:59;;;;;;;;;;;;;;;;;;;;;
2022/06/26 04:09:26;;;;;;;1.70;1.60;;;;;;;17.47;76.14;97940.47;4989850;28;20109;-90
2022/06/26 04:11:53;;;;;;;1.80;1.70;;;;;;;17.55;75.75;97953.28;4993447;28;20494;-91
2022/06/26 04:14:21;;;;;;;1.08;1.08;;;;;;;17.55;75.51;97954.09;4993549;28;20081;-90
2022/06/26 04:16:47;;;;;;;1.33;1.23;;;;;;;17.73;76.04;97968.91;4993067;28;20878;-89
2022/06/26 04:19:13;;;;;;;1.55;1.45;;;;;;;17.63;75.55;97966.09;4991857;28;20035;-89
2022/06/26 04:21:41;;;;;;;1.50;1.40;;;;;;;17.61;75.33;97952.31;4993129;28;20117;-89
2022/06/26 04:24:06;;;;;;;1.65;1.27;;;;;;;17.66;76.44;97953.16;4993423;28;20117;-89
2022/06/26 04:26:32;;;;;;;1.40;1.30;;;;;;;17.64;76.83;97967.72;5009616;28;20034;-90
2022/06/26 04:29:00;;;;;;;1.38;1.13;;;;;;;17.72;76.04;97964.66;4995445;28;20030;-90
2022/06/26 04:31:28;;;;;;;1.50;1.40;;;;;;;17.81;76.07;97972.97;4997889;28;20030;-88
2022/06/26 04:33:54;;;;;;;1.70;1.60;;;;;;;17.69;76.22;97966.97;4993085;28;20088;-90
2022/06/26 04:36:21;;;;;;;1.70;1.60;;;;;;;17.68;75.38;97963.50;5008629;28;20137;-91
2022/06/26 04:38:46;;;;;;;1.52;1.30;;;;;;;17.73;76.05;97962.81;4992786;28;20030;-90
2022/06/26 04:43:56;;;;;;;2.17;1.70;;;;;;;17.63;75.98;97960.81;5005955;28;20463;-88
2022/06/26 04:46:22;;;;;;;1.63;1.52;;;;;;;17.73;76.41;97966.25;4991062;28;20125;-92
2022/06/26 04:48:47;;;;;;;1.50;1.40;;;;;;;17.82;76.63;97967.44;4995137;28;20394;-90
2022/06/26 04:51:13;;;;;;;1.60;1.50;;;;;;;17.79;76.31;97959.97;4993342;28;20038;-90
2022/06/26 04:53:39;;;;;;;1.98;1.70;;;;;;;17.85;76.06;97955.50;5005979;28;20030;-90
2022/06/26 04:56:05;;;;;;;1.40;1.30;;;;;;;17.85;77.05;97964.25;4977076;28;20048;-87
2022/06/26 04:58:31;;;;;;;1.23;1.20;;;;;;;18.01;76.40;97986.47;5005349;28;20061;-88
2022/06/26 05:00:56;;;;;;;3.92;2.80;;;;;;;17.73;75.38;97982.16;4987971;28;20097;-87
2022/06/26 05:03:22;;;;;;;2.17;2.08;;;;;;;17.76;76.04;97963.13;5009224;28;20429;-91
2022/06/26 05:05:50;;;;;;;1.85;1.73;;;;;;;17.87;77.02;97961.34;5008699;28;20049;-91
2022/06/26 05:08:15;;;;;;;2.28;1.98;;;;;;;18.06;75.84;97965.28;4984455;28;20030;-86
2022/06/26 05:10:41;;;;;;;2.17;2.08;;;;;;;18.19;75.20;97972.03;5016628;28;20100;-89
2022/06/26 05:13:06;;;;;;;1.70;1.60;;;;;;;18.45;76.03;97976.50;5024921;28;20041;-86
2022/06/26 05:15:32;;;;;;;2.40;1.85;;;;;;;18.42;74.59;97953.13;4993183;28;20038;-89
2022/06/26 05:17:58;;;;;;;2.20;2.00;;;;;;;18.59;73.89;97974.25;4976525;28;20113;-88
2022/06/26 05:20:23;;;;;;;1.70;1.60;;;;;;;18.66;74.01;97964.19;4972595;28;20030;-88
2022/06/26 05:22:49;;;;;;;1.60;1.50;;;;;;;18.88;73.47;97977.38;5005792;28;20105;-90
2022/06/26 05:25:14;;;;;;;1.70;1.60;;;;;;;18.98;73.31;97966.81;4993681;28;20185;-86
2022/06/26 05:27:40;;;;;;;2.30;2.17;;;;;;;19.17;71.98;97985.00;4992418;28;20074;-87
2022/06/26 05:30:06;;;;;;;1.67;1.58;;;;;;;19.21;71.85;97970.94;4983330;28;20117;-90
2022/06/26 05:32:31;;;;;;;2.83;2.05;;;;;;;19.29;70.49;97976.81;4992374;28;20034;-91
2022/06/26 05:34:57;;;;;;;2.05;1.92;;;;;;;19.47;70.74;97990.47;4990635;28;20038;-87
2022/06/26 05:37:23;;;;;;;2.42;2.22;;;;;;;19.70;69.97;97999.13;4984879;28;20030;-91
2022/06/26 05:39:48;;;;;;;2.20;2.05;;;;;;;19.82;69.39;97980.25;4979796;28;20031;-90
2022/06/26 05:42:14;;;;;;;1.90;1.80;;;;;;;19.89;68.51;97978.94;4986384;28;20188;-87
2022/06/26 05:44:40;;;;;;;2.08;1.88;;;;;;;20.09;68.13;97970.22;4991450;28;20064;-90
2022/06/26 05:47:05;;;;;;;1.80;1.70;;;;;;;20.42;67.66;97990.22;5008400;28;20053;-90
2022/06/26 05:49:31;;;;;;;1.90;1.80;;;;;;;20.54;67.89;97979.34;4992796;28;20752;-86
2022/06/26 05:51:56;;;;;;;2.20;2.00;;;;;;;20.79;66.61;97995.31;4991188;28;20061;-87
2022/06/26 05:54:25;;;;;;;1.90;1.80;;;;;;;20.80;67.08;97972.13;4987770;28;20398;-91
2022/06/26 05:56:52;;;;;;;2.17;2.08;;;;;;;20.96;66.17;97988.91;4969108;28;20037;-91
2022/06/26 05:59:18;;;;;;;2.55;2.13;;;;;;;21.02;64.55;97977.94;4991373;28;20517;-91
2022/06/26 06:01:44;;;;;;;1.90;1.80;;;;;;;21.21;65.26;97986.16;5023755;28;20050;-86
2022/06/26 06:04:09;;;;;;;1.83;1.73;;;;;;;21.37;64.39;97989.63;5012911;28;20504;-90
2022/06/26 06:06:35;;;;;;;1.95;1.85;;;;;;;21.43;64.16;97977.06;4994999;28;20437;-89
2022/06/26 06:09:01;;;;;;;1.75;1.65;;;;;;;21.58;64.45;97988.47;5023359;28;20034;-89
2022/06/26 06:11:26;;;;;;;1.50;1.40;;;;;;;21.85;62.50;97995.31;5009399;28;20034;-93
2022/06/26 06:13:52;;;;;;;1.70;1.60;;;;;;;22.02;62.60;97985.06;4991134;28;20096;-89
2022/06/26 06:16:18;;;;;;;1.80;1.70;;;;;;;22.01;62.67;97983.47;5007596;28;20038;-87
2022/06/26 06:18:44;;;;;;;2.78;1.55;;;;;;;22.22;62.38;97991.38;5008556;28;20030;-91
2022/06/26 06:21:09;;;;;;;1.75;1.65;;;;;;;22.33;61.79;97991.03;4991373;28;20030;-91
2022/06/26 06:23:35;;;;;;;1.85;1.75;;;;;;;22.38;61.72;97982.19;4991359;28;20038;-86
2022/06/26 06:26:01;;;;;;;1.90;1.55;;;;;;;22.58;60.75;97998.06;4992266;28;20113;-92
2022/06/26 06:28:26;;;;;;;1.70;1.60;;;;;;;22.71;59.96;97996.63;5009337;28;20031;-90
2022/06/26 06:30:52;;;;;;;1.50;1.40;;;;;;;22.91;60.01;98004.50;4997573;28;20038;-88
2022/06/26 06:33:17;;;;;;;1.30;1.30;;;;;;;23.02;60.16;97993.69;4993309;28;20062;-92
2022/06/26 06:35:43;;;;;;;1.48;1.38;;;;;;;23.12;60.56;97990.91;5007610;28;20034;-91
2022/06/26 06:38:14;;;;;;;1.60;1.50;;;;;;;23.25;59.00;97992.91;5007878;28;20034;-91
2022/06/26 06:40:40;;;;;;;1.55;1.45;;;;;;;23.19;58.05;97981.47;4993698;28;20486;-90
2022/06/26 06:43:10;;;;;;;1.60;1.50;;;;;;;23.42;58.32;97989.78;4990477;28;20124;-89
2022/06/26 06:45:36;;;;;;;1.60;1.50;;;;;;;23.48;59.79;97983.28;4993143;28;20053;-87
2022/06/26 06:48:08;;;;;;;1.58;1.48;;;;;;;23.73;58.31;98004.44;5024970;28;20038;-92
2022/06/26 06:50:35;;;;;;;1.20;1.20;;;;;;;23.89;58.36;98006.91;4987978;28;20105;-93
2022/06/26 06:53:01;;;;;;;1.50;1.40;;;;;;;24.02;57.25;98009.69;4992909;28;20084;-94
2022/06/26 06:55:27;;;;;;;1.65;1.55;;;;;;;24.17;58.08;98008.69;4992679;28;20088;-92
2022/06/26 06:57:53;;;;;;;1.20;1.20;;;;;;;24.42;58.03;98012.09;5012046;28;20058;-93
2022/06/26 07:00:18;;;;;;;1.50;1.40;;;;;;;24.48;55.11;98017.09;5027818;28;20053;-90
2022/06/26 07:02:44;;;;;;;1.45;1.35;;;;;;;24.51;56.69;97995.03;5011528;28;20038;-92
2022/06/26 07:05:10;;;;;;;1.60;1.50;;;;;;;24.69;55.14;98003.34;5007520;28;20561;-92
2022/06/26 07:07:36;;;;;;;1.70;1.60;;;;;;;24.87;55.19;98001.72;4974411;28;20132;-91
2022/06/26 07:10:03;;;;;;;1.48;1.38;;;;;;;24.98;54.13;98003.13;5007102;28;20030;-92
2022/06/26 07:12:57;;;;;;;2.47;1.42;;;;;;;24.95;53.53;98015.25;5006070;28;20097;-89
2022/06/26 07:15:26;;;;;;;1.50;1.40;;;;;;;24.88;52.48;98012.13;4991719;28;20053;-93
2022/06/26 07:17:54;;;;;;;1.30;1.20;;;;;;;24.94;52.18;98004.78;5006975;28;20034;-92
2022/06/26 07:20:20;;;;;;;1.60;1.50;;;;;;;24.89;52.45;97997.66;5006308;28;20057;-91
2022/06/26 07:22:45;;;;;;;1.77;1.67;;;;;;;24.93;52.91;98011.25;4990834;28;20060;-92
2022/06/26 07:25:12;;;;;;;1.20;1.15;;;;;;;25.00;52.89;98017.81;5005939;28;20043;-93
2022/06/26 07:27:37;;;;;;;1.30;1.30;;;;;;;24.73;52.22;97996.31;4992358;28;20023;-94
2022/06/26 07:30:04;;;;;;;1.85;1.50;;;;;;;25.10;52.68;98016.88;4986993;28;20486;-88
2022/06/26 07:32:30;;;;;;;1.15;1.10;;;;;;;25.36;53.53;98004.56;4967284;28;51933;-91
2022/06/26 07:34:56;;;;;;;1.90;1.38;;;;;;;25.60;50.86;98014.31;4974682;28;20027;-92
2022/06/26 07:37:22;;;;;;;2.30;1.20;;;;;;;25.60;51.98;98008.94;5008081;28;20552;-93
2022/06/26 07:39:47;;;;;;;1.58;1.10;;;;;;;25.80;52.22;98013.16;4969612;28;20046;-90
2022/06/26 07:42:13;;;;;;;1.85;1.75;;;;;;;25.66;50.75;98006.97;4978766;28;20041;-90
2022/06/26 07:44:38;;;;;;;1.40;1.30;;;;;;;25.71;50.26;98004.19;5005063;28;20108;-91
2022/06/26 07:47:04;;;;;;;1.48;1.38;;;;;;;25.86;50.15;98012.75;4982182;28;20030;-91
2022/06/26 07:49:30;;;;;;;1.85;1.20;;;;;;;26.09;51.30;98020.88;4992829;28;20069;-90
2022/06/26 07:51:55;;;;;;;1.15;1.10;;;;;;;26.16;49.62;98015.88;4993070;28;20035;-90
2022/06/26 07:54:21;;;;;;;1.00;1.00;;;;;;;26.20;50.47;98003.41;4994954;28;20037;-91
2022/06/26 07:56:50;;;;;;;1.30;1.17;;;;;;;26.16;49.03;98026.63;5015939;28;20397;-90
2022/06/26 07:59:16;;;;;;;1.75;1.50;;;;;;;26.13;49.73;98029.91;5030961;28;20042;-93
2022/06/26 08:01:42;;;;;;;1.92;1.20;;;;;;;26.12;51.37;98026.44;4998477;28;20058;-89
2022/06/26 08:04:09;;;;;;;1.80;1.70;;;;;;;26.04;48.90;98027.16;4992800;28;20030;-91
2022/06/26 08:06:38;;;;;;;1.70;1.60;;;;;;;25.96;49.01;98011.72;4995896;28;20113;-93
2022/06/26 08:09:04;;;;;;;0.90;0.90;;;;;;;26.28;50.42;98021.50;5023836;28;20041;-89
2022/06/26 08:11:46;;;;;;;1.80;1.70;;;;;;;26.04;48.19;98023.66;4996931;28;20037;-91
2022/06/26 08:14:11;;;;;;;1.92;1.83;;;;;;;25.80;48.71;98008.59;4995400;28;20034;-91
2022/06/26 08:16:37;;;;;;;1.02;1.00;;;;;;;26.19;49.79;98025.22;4994539;28;20038;-91
2022/06/26 08:19:02;;;;;;;1.10;1.10;;;;;;;26.47;47.71;98015.19;5026648;28;20650;-93
2022/06/26 08:24:12;;;;;;;1.23;1.10;;;;;;;26.58;49.39;98013.88;4994615;28;20085;-89
2022/06/26 08:26:37;;;;;;;1.27;1.20;;;;;;;26.65;47.81;98003.47;4975310;28;20035;-91
2022/06/26 08:29:03;;;;;;;1.63;1.52;;;;;;;26.63;47.00;98003.78;4993416;28;20116;-93
2022/06/26 08:31:28;;;;;;;1.13;1.10;;;;;;;26.73;46.29;97991.97;4994733;28;20517;-93
2022/06/26 08:33:54;;;;;;;1.02;1.02;;;;;;;26.91;47.17;97993.63;4995312;28;20489;-93
2022/06/26 08:36:19;;;;;;;0.90;0.90;;;;;;;26.99;47.29;97989.44;4988989;28;20030;-89
2022/06/26 08:38:45;;;;;;;1.33;1.25;;;;;;;27.07;46.98;97988.69;5012874;28;20348;-91
2022/06/26 08:41:12;;;;;;;0.95;0.95;;;;;;;27.37;45.59;97995.16;4975348;28;20110;-88
2022/06/26 08:43:41;;;;;;;1.60;1.50;;;;;;;27.39;45.08;97990.25;4993836;28;20392;-91
2022/06/26 08:46:07;;;;;;;0.90;0.90;;;;;;;27.69;47.34;97996.69;4993431;28;20734;-88
2022/06/26 08:48:46;;;;;;;1.13;1.10;;;;;;;27.79;44.25;97984.84;4992965;28;20045;-91
2022/06/26 08:51:12;;;;;;;1.45;1.35;;;;;;;27.79;44.45;97990.22;5024811;28;20038;-88
2022/06/26 08:53:40;;;;;;;1.10;1.10;;;;;;;27.80;43.78;97982.94;4972285;28;20454;-89
2022/06/26 08:56:06;;;;;;;1.02;1.00;;;;;;;27.98;44.32;97987.22;4982629;28;20030;-88
2022/06/26 08:58:32;;;;;;;1.55;1.45;;;;;;;27.84;42.09;97987.38;4992510;28;20092;-93
2022/06/26 09:00:58;;;;;;;1.10;1.10;;;;;;;28.02;44.40;97990.09;5001954;28;20057;-87
2022/06/26 09:03:24;;;;;;;1.30;1.30;;;;;;;28.04;43.02;97982.47;4995932;28;20039;-88
2022/06/26 09:05:49;;;;;;;1.15;1.15;;;;;;;27.93;43.45;97974.69;4993491;28;20026;-89
2022/06/26 09:08:20;;;;;;;1.27;1.23;;;;;;;28.20;44.28;97989.00;4976363;28;20064;-87
2022/06/26 09:10:48;;;;;;;1.15;1.05;;;;;;;28.21;45.16;97985.19;4990471;28;20109;-88
2022/06/26 09:13:14;;;;;;;1.30;1.20;;;;;;;28.30;44.47;97988.66;4992520;28;20542;-88
2022/06/26 09:15:42;;;;;;;1.40;1.30;;;;;;;27.93;43.82;97985.47;4994578;28;20113;-89
2022/06/26 09:18:11;;;;;;;1.95;1.08;;;;;;;28.01;43.73;97973.13;4992210;28;20417;-88
2022/06/26 09:20:53;;;;;;;1.40;1.17;;;;;;;28.14;44.68;97984.88;5009099;28;20038;-90
2022/06/26 09:23:20;;;;;;;1.38;1.30;;;;;;;27.81;43.62;97974.53;4994664;28;20054;-89
2022/06/26 09:25:46;;;;;;;1.10;1.10;;;;;;;27.91;42.47;97976.94;5009602;28;20081;-89
2022/06/26 09:28:15;;;;;;;3.13;1.52;;;;;;;27.98;41.07;97976.44;4994475;28;20034;-92
2022/06/26 09:30:56;;;;;;;1.20;1.20;;;;;;;27.90;41.67;97988.81;4978500;28;20053;-90
2022/06/26 09:33:27;;;;;;;1.33;1.23;;;;;;;28.09;42.64;97983.13;4988630;28;20731;-92
2022/06/26 09:35:54;;;;;;;1.08;1.08;;;;;;;28.08;41.89;97983.44;4989335;28;20521;-88
2022/06/26 09:38:26;;;;;;;0.95;0.95;;;;;;;28.52;42.19;97985.81;4974922;28;20034;-93
2022/06/26 09:40:57;;;;;;;1.23;1.23;;;;;;;28.59;41.25;97995.34;4972905;28;20278;-90
2022/06/26 09:43:38;;;;;;;1.67;1.20;;;;;;;28.72;41.77;97978.16;5024375;28;20034;-89
2022/06/26 09:46:07;;;;;;;1.27;1.10;;;;;;;28.63;41.74;97974.72;4992204;28;20078;-90
2022/06/26 09:48:35;;;;;;;1.00;1.00;;;;;;;28.94;41.44;97961.78;4975633;28;20046;-89
2022/06/26 09:51:03;;;;;;;1.10;1.10;;;;;;;28.99;40.41;97971.63;4992944;28;20092;-90
2022/06/26 09:53:30;;;;;;;0.90;0.90;;;;;;;29.12;40.70;97970.63;4971977;28;20022;-88
2022/06/26 09:55:58;;;;;;;1.38;1.23;;;;;;;29.18;41.34;97973.94;4958727;28;20116;-85
2022/06/26 09:58:26;;;;;;;1.25;1.15;;;;;;;29.12;40.85;97959.03;4992213;28;20062;-88
2022/06/26 10:06:31;;;;;;;1.20;1.20;;;;;;;29.07;40.16;97973.50;4991277;28;20474;-89
2022/06/26 10:09:00;;;;;;;1.30;1.20;;;;;;;29.35;41.09;97978.47;5003588;28;20030;-86
2022/06/26 10:11:40;;;;;;;1.00;1.00;;;;;;;29.50;40.42;97972.50;4991645;28;20045;-86
2022/06/26 10:14:19;;;;;;;0.90;0.90;;;;;;;29.69;41.20;97975.63;5006751;28;20030;-88
2022/06/26 10:16:58;;;;;;;1.00;1.00;;;;;;;29.77;39.43;97963.16;4991541;28;20110;-90
2022/06/26 10:19:39;;;;;;;0.90;0.90;;;;;;;29.83;40.67;97951.03;4994095;28;20041;-89
2022/06/26 10:22:05;;;;;;;1.15;1.15;;;;;;;29.93;38.64;97969.56;4992830;28;20030;-86
2022/06/26 10:24:32;;;;;;;1.05;1.05;;;;;;;30.12;40.01;97963.72;4995803;28;20040;-92
2022/06/26 10:27:01;;;;;;;1.10;1.00;;;;;;;29.99;40.92;97965.56;4993176;28;20030;-91
2022/06/26 10:29:39;;;;;;;0.90;0.90;;;;;;;29.93;39.91;97972.28;5007023;28;20026;-87
2022/06/26 10:32:07;;;;;;;0.90;0.90;;;;;;;29.87;38.31;97968.19;4990982;28;20038;-88
2022/06/26 10:34:34;;;;;;;1.10;1.10;;;;;;;29.74;36.05;97966.50;4991778;28;20065;-88
2022/06/26 10:37:14;;;;;;;0.90;0.90;;;;;;;29.79;36.63;97966.31;4991330;28;20034;-88
2022/06/26 10:39:43;;;;;;;1.00;1.00;;;;;;;29.61;36.91;97960.22;4991184;28;20057;-91
2022/06/26 10:45:24;;;;;;;1.00;0.90;;;;;;;30.16;36.42;97951.09;4994270;28;20417;-90
2022/06/26 10:48:01;;;;;;;1.10;1.10;;;;;;;30.17;38.53;97941.06;5010802;28;20045;-91
2022/06/26 10:50:37;;;;;;;0.95;0.77;;;;;;;30.30;38.32;97926.50;4992212;28;20121;-88
2022/06/26 10:53:37;;;;;;;0.90;0.90;;;;;;;30.55;37.17;97944.38;4991373;28;20033;-90
2022/06/26 10:56:06;;;;;;;0.90;0.90;;;;;;;30.56;36.90;97940.56;4988170;28;20038;-88
2022/06/26 10:58:41;;;;;;;1.00;1.00;;;;;;;30.51;35.57;97931.84;4991155;28;20041;-90
2022/06/26 11:01:10;;;;;;;1.00;1.00;;;;;;;30.53;37.45;97935.81;4990410;28;20097;-87
2022/06/26 11:03:38;;;;;;;1.20;1.10;;;;;;;30.55;37.18;97938.97;4991394;28;20026;-86
2022/06/26 11:06:10;;;;;;;0.95;0.95;;;;;;;30.80;36.69;97945.25;4990674;28;20042;-87
2022/06/26 11:08:43;;;;;;;0.80;0.80;;;;;;;30.83;36.28;97927.56;4994164;28;20042;-85
2022/06/26 11:11:14;;;;;;;1.02;1.02;;;;;;;30.80;35.97;97939.06;4989912;28;20045;-90
2022/06/26 11:13:59;;;;;;;1.02;1.02;;;;;;;30.37;36.69;97935.66;5027786;28;20077;-91
2022/06/26 11:16:35;;;;;;;1.05;0.80;;;;;;;30.57;37.97;97925.09;5025738;28;20615;-92
2022/06/26 11:19:07;;;;;;;0.80;0.80;;;;;;;30.70;37.70;97921.31;5026716;28;20070;-85
2022/06/26 11:21:33;;;;;;;0.85;0.85;;;;;;;30.93;35.84;97927.09;4995432;28;20042;-87
2022/06/26 11:24:01;;;;;;;0.98;0.98;;;;;;;30.93;35.36;97924.41;4996139;28;20049;-88
2022/06/26 11:26:28;;;;;;;0.85;0.85;;;;;;;30.88;34.67;97932.75;5008956;28;20042;-90
2022/06/26 11:29:03;;;;;;;1.10;1.00;;;;;;;31.01;36.07;97928.94;5025957;28;20395;-90
2022/06/26 11:31:32;;;;;;;1.83;1.00;;;;;;;30.96;35.56;97914.84;5011451;28;20069;-88
2022/06/26 11:34:13;;;;;;;0.75;0.75;;;;;;;31.16;37.12;97924.75;4994666;28;20109;-87
2022/06/26 11:36:51;;;;;;;0.73;0.73;;;;;;;31.31;35.31;97931.47;4974166;28;20160;-91
2022/06/26 11:39:17;;;;;;;0.70;0.70;;;;;;;31.43;35.69;97912.47;4989781;28;20031;-89
2022/06/26 11:41:44;;;;;;;1.00;1.00;;;;;;;31.49;36.31;97919.25;5007390;28;20058;-88
2022/06/26 11:44:09;;;;;;;1.60;0.90;;;;;;;31.62;37.79;97920.00;4994347;28;20076;-87
2022/06/26 11:46:35;;;;;;;1.00;1.00;;;;;;;31.71;36.62;97924.16;4992936;28;20062;-89
2022/06/26 11:49:01;;;;;;;0.90;0.90;;;;;;;31.70;35.42;97917.16;5009953;28;20077;-89
2022/06/26 11:51:31;;;;;;;0.82;0.82;;;;;;;31.76;35.65;97915.00;5006250;28;20041;-87
2022/06/26 11:53:57;;;;;;;1.38;0.80;;;;;;;31.89;34.99;97913.06;4993611;28;20034;-88